Time;durP1;ratioP1;P1;durP2;ratioP2;P2;SDS_P1;SDS_P2;PMS_P1;PMS_P2;Temp;Humidity;BMP_temperature;BMP_pressure;BME280_temperature;BME280_humidity;BME280_pressure;Samples;Min_cycle;Max_cycle;Signal;HPM_P1;HPM_P2
2021/08/30 00:02:02;;;;;;;4.43;2.60;;;14.60;99.90;;;;;;5031147;28;20472;-71
2021/08/30 00:04:30;;;;;;;3.47;2.60;;;14.60;99.90;;;;;;5031328;28;20432;-71
2021/08/30 00:06:59;;;;;;;3.27;2.97;;;14.50;99.90;;;;;;5030914;28;20499;-71
2021/08/30 00:09:29;;;;;;;3.07;2.07;;;14.50;99.90;;;;;;5031333;28;20422;-72
2021/08/30 00:11:57;;;;;;;3.97;2.97;;;14.50;99.90;;;;;;5031500;28;20410;-72
2021/08/30 00:14:25;;;;;;;3.87;3.20;;;14.50;99.90;;;;;;5031533;28;20403;-71
2021/08/30 00:16:53;;;;;;;3.30;2.53;;;14.60;99.90;;;;;;5030961;28;20455;-72
2021/08/30 00:19:21;;;;;;;5.43;4.70;;;14.60;99.90;;;;;;5031097;28;20992;-72
2021/08/30 00:21:49;;;;;;;2.80;2.40;;;14.50;99.90;;;;;;5032473;28;20432;-71
2021/08/30 00:24:22;;;;;;;2.63;2.40;;;14.40;99.90;;;;;;5034675;28;20398;-71
2021/08/30 00:26:52;;;;;;;4.60;2.80;;;14.40;99.90;;;;;;5034249;28;20446;-70
2021/08/30 00:29:25;;;;;;;2.90;2.50;;;14.50;99.90;;;;;;5016930;28;20971;-70
2021/08/30 00:31:53;;;;;;;3.33;2.73;;;14.60;99.90;;;;;;5034453;28;20441;-71
2021/08/30 00:34:21;;;;;;;3.90;3.10;;;14.60;99.90;;;;;;5034490;28;20503;-70
2021/08/30 00:36:50;;;;;;;2.80;2.33;;;14.60;99.90;;;;;;5034251;28;20423;-71
2021/08/30 00:39:19;;;;;;;3.00;2.43;;;14.50;99.90;;;;;;5034328;28;20395;-71
2021/08/30 00:41:48;;;;;;;2.77;2.37;;;14.50;99.90;;;;;;5034534;28;21083;-70
2021/08/30 00:44:17;;;;;;;3.97;2.80;;;14.50;99.90;;;;;;5034408;28;20472;-71
2021/08/30 00:46:45;;;;;;;2.77;2.20;;;14.50;99.90;;;;;;5034017;28;20438;-72
2021/08/30 00:49:13;;;;;;;6.40;2.93;;;14.40;99.90;;;;;;5034190;28;20833;-70
2021/08/30 00:51:42;;;;;;;2.80;2.43;;;14.50;99.90;;;;;;5034286;28;20406;-71
2021/08/30 00:54:10;;;;;;;3.37;2.87;;;14.50;99.90;;;;;;5034341;28;20403;-71
2021/08/30 00:56:39;;;;;;;3.17;2.30;;;14.50;99.90;;;;;;5033805;28;20476;-72
2021/08/30 00:59:09;;;;;;;3.60;2.53;;;14.50;99.90;;;;;;5034771;28;20528;-75
2021/08/30 01:01:38;;;;;;;3.40;2.97;;;14.60;99.90;;;;;;5035823;28;20966;-74
2021/08/30 01:04:11;;;;;;;4.10;3.47;;;14.70;99.90;;;;;;5035554;28;20423;-73
2021/08/30 01:06:45;;;;;;;3.13;2.37;;;14.60;99.90;;;;;;5036726;28;20533;-72
2021/08/30 01:09:23;;;;;;;4.70;3.03;;;14.50;99.90;;;;;;5018170;28;20502;-73
2021/08/30 01:11:55;;;;;;;4.50;3.93;;;14.60;99.90;;;;;;5017247;28;20414;-74
2021/08/30 01:14:26;;;;;;;5.23;3.57;;;14.50;99.90;;;;;;5016682;28;20432;-72
2021/08/30 01:16:55;;;;;;;6.13;4.40;;;14.60;99.90;;;;;;5033436;28;20494;-70
2021/08/30 01:19:34;;;;;;;3.63;2.90;;;14.60;99.90;;;;;;5033951;28;20923;-71
2021/08/30 01:22:05;;;;;;;4.73;3.53;;;14.60;99.90;;;;;;5033678;28;20387;-72
2021/08/30 01:24:34;;;;;;;5.37;2.97;;;14.50;99.90;;;;;;5033865;28;20430;-71
2021/08/30 01:27:04;;;;;;;4.10;2.77;;;14.50;99.90;;;;;;5033333;28;20470;-72
2021/08/30 01:29:40;;;;;;;3.33;2.90;;;14.50;99.90;;;;;;5033477;28;20799;-72
2021/08/30 01:32:23;;;;;;;5.13;3.20;;;14.40;99.90;;;;;;5033144;28;20426;-73
2021/08/30 01:34:52;;;;;;;4.83;3.47;;;14.40;99.90;;;;;;5033383;28;20434;-72
2021/08/30 01:37:20;;;;;;;4.90;3.90;;;14.40;99.90;;;;;;5033228;28;20801;-72
2021/08/30 01:39:49;;;;;;;5.37;3.77;;;14.50;99.90;;;;;;5018852;28;20407;-72
2021/08/30 01:42:18;;;;;;;4.10;3.57;;;14.40;99.90;;;;;;5033913;28;20456;-72
2021/08/30 01:44:47;;;;;;;4.20;3.67;;;14.40;99.90;;;;;;5033588;28;20435;-72
2021/08/30 01:47:16;;;;;;;4.33;3.50;;;14.40;99.90;;;;;;5033216;28;20831;-72
2021/08/30 01:49:49;;;;;;;4.97;3.93;;;14.30;99.90;;;;;;5034643;28;20458;-71
2021/08/30 01:52:17;;;;;;;6.30;3.80;;;14.30;99.90;;;;;;5034796;28;20420;-71
2021/08/30 01:54:46;;;;;;;3.70;3.20;;;14.30;99.90;;;;;;5033242;28;20449;-70
2021/08/30 01:57:19;;;;;;;7.07;4.40;;;14.40;99.90;;;;;;5032991;28;20683;-70
2021/08/30 02:02:37;;;;;;;5.37;3.50;;;14.30;99.90;;;;;;5034136;28;20468;-74
2021/08/30 02:05:07;;;;;;;5.27;4.77;;;14.30;99.90;;;;;;5033517;28;20428;-74
2021/08/30 02:07:35;;;;;;;4.70;3.80;;;14.30;99.90;;;;;;5032805;28;20504;-74
2021/08/30 02:10:04;;;;;;;4.30;3.50;;;14.30;99.90;;;;;;5033073;28;20406;-74
2021/08/30 02:12:32;;;;;;;4.00;3.13;;;14.40;99.90;;;;;;5033079;28;20460;-74
2021/08/30 02:15:00;;;;;;;4.87;3.70;;;14.40;99.90;;;;;;5033373;28;20402;-74
2021/08/30 02:17:34;;;;;;;5.17;4.10;;;14.30;99.90;;;;;;5016448;28;20447;-73
2021/08/30 02:20:09;;;;;;;5.47;4.30;;;14.30;99.90;;;;;;5034929;28;20410;-72
2021/08/30 02:22:42;;;;;;;5.00;3.67;;;14.30;99.90;;;;;;5037720;28;20402;-72
2021/08/30 02:25:13;;;;;;;4.00;3.63;;;14.30;99.90;;;;;;5039786;28;20425;-71
2021/08/30 02:27:45;;;;;;;7.10;4.57;;;14.30;99.90;;;;;;5040634;28;20504;-73
2021/08/30 02:30:18;;;;;;;5.67;3.97;;;14.40;99.90;;;;;;5033617;28;20398;-73
2021/08/30 02:32:49;;;;;;;6.70;3.53;;;14.30;99.90;;;;;;5033272;28;20435;-72
2021/08/30 02:35:23;;;;;;;5.10;4.47;;;14.30;99.90;;;;;;5033182;28;20510;-73
2021/08/30 02:37:53;;;;;;;8.93;5.00;;;14.30;99.90;;;;;;5014999;28;20461;-71
2021/08/30 02:40:24;;;;;;;5.77;4.23;;;14.30;99.90;;;;;;5032694;28;20395;-73
2021/08/30 02:42:53;;;;;;;5.47;4.97;;;14.30;99.90;;;;;;5015304;28;20399;-73
2021/08/30 02:45:22;;;;;;;5.47;4.53;;;14.30;99.90;;;;;;5014316;28;20501;-72
2021/08/30 02:47:52;;;;;;;5.80;4.70;;;14.40;99.90;;;;;;5031983;28;20496;-72
2021/08/30 02:50:23;;;;;;;6.50;4.10;;;14.50;99.90;;;;;;5032446;28;20406;-72
2021/08/30 02:52:52;;;;;;;6.80;4.90;;;14.60;99.90;;;;;;5032297;28;20398;-72
2021/08/30 02:55:21;;;;;;;6.93;4.10;;;14.60;99.90;;;;;;5032376;28;20450;-73
2021/08/30 02:57:50;;;;;;;8.77;4.30;;;14.70;99.90;;;;;;5014562;28;20414;-73
2021/08/30 03:00:19;;;;;;;7.67;5.87;;;14.70;99.90;;;;;;5034209;28;20395;-73
2021/08/30 03:02:47;;;;;;;7.33;6.23;;;14.50;99.90;;;;;;5038420;28;20458;-73
2021/08/30 03:05:17;;;;;;;5.80;4.90;;;14.60;99.90;;;;;;5032719;23;20510;-71
2021/08/30 03:07:48;;;;;;;7.43;5.00;;;14.70;99.90;;;;;;5003564;28;20989;-71
2021/08/30 03:10:17;;;;;;;5.93;4.17;;;14.70;99.90;;;;;;5012408;28;20417;-70
2021/08/30 03:12:46;;;;;;;5.43;3.87;;;14.70;99.90;;;;;;5012172;28;20435;-71
2021/08/30 03:15:18;;;;;;;5.80;4.10;;;14.60;99.90;;;;;;5012617;28;20506;-71
2021/08/30 03:17:47;;;;;;;6.00;4.13;;;14.60;99.90;;;;;;5012385;28;20424;-72
2021/08/30 03:20:23;;;;;;;9.60;6.17;;;14.60;99.90;;;;;;5012313;28;20468;-71
2021/08/30 03:22:54;;;;;;;7.97;5.03;;;14.50;99.90;;;;;;5012770;28;20407;-71
2021/08/30 03:25:28;;;;;;;7.10;4.87;;;14.50;99.90;;;;;;5012571;28;20441;-72
2021/08/30 03:27:58;;;;;;;6.53;4.67;;;14.60;99.90;;;;;;5012042;28;20510;-70
2021/08/30 03:30:27;;;;;;;7.07;5.63;;;14.60;99.90;;;;;;5012702;28;20388;-71
2021/08/30 03:32:56;;;;;;;4.90;4.10;;;14.50;99.90;;;;;;5012443;28;20414;-70
2021/08/30 03:35:25;;;;;;;7.43;4.60;;;14.60;99.90;;;;;;5013851;28;20776;-71
2021/08/30 03:37:56;;;;;;;6.97;4.73;;;14.60;99.90;;;;;;5017379;28;20422;-71
2021/08/30 03:40:25;;;;;;;6.23;4.97;;;14.60;99.90;;;;;;5018268;28;20417;-71
2021/08/30 03:42:53;;;;;;;7.87;5.37;;;14.70;99.90;;;;;;5015081;28;20399;-71
2021/08/30 03:45:21;;;;;;;4.97;3.53;;;14.70;99.90;;;;;;5014194;28;20520;-70
2021/08/30 03:47:50;;;;;;;6.87;4.73;;;14.70;99.90;;;;;;5012697;28;20432;-70
2021/08/30 03:50:18;;;;;;;5.63;4.70;;;14.70;99.90;;;;;;5012374;28;20450;-70
2021/08/30 03:52:47;;;;;;;4.83;4.33;;;14.70;99.90;;;;;;5011932;28;20400;-70
2021/08/30 03:55:17;;;;;;;4.57;3.70;;;14.80;99.90;;;;;;5012418;28;20812;-70
2021/08/30 03:57:46;;;;;;;6.13;4.93;;;14.80;99.90;;;;;;5015282;28;20469;-70
2021/08/30 04:00:15;;;;;;;6.10;5.07;;;14.60;99.90;;;;;;5015354;28;20434;-70
2021/08/30 04:02:43;;;;;;;6.13;4.73;;;14.50;99.90;;;;;;5015358;28;20406;-70
2021/08/30 04:05:17;;;;;;;6.80;4.83;;;14.50;99.90;;;;;;5014933;28;20435;-71
2021/08/30 04:07:48;;;;;;;7.37;4.60;;;14.60;99.90;;;;;;5015404;28;20438;-70
2021/08/30 04:10:17;;;;;;;7.17;5.30;;;14.50;99.90;;;;;;4997893;28;20424;-72
2021/08/30 04:12:46;;;;;;;6.67;4.90;;;14.60;99.90;;;;;;5015269;28;20408;-71
2021/08/30 04:15:14;;;;;;;6.60;5.30;;;14.70;99.90;;;;;;5015126;28;20399;-71
2021/08/30 04:17:46;;;;;;;8.47;5.73;;;14.70;99.90;;;;;;5014979;28;20429;-71
2021/08/30 04:20:14;;;;;;;8.07;6.43;;;14.60;99.90;;;;;;5014947;28;20520;-74
2021/08/30 04:22:42;;;;;;;7.27;5.73;;;14.70;99.90;;;;;;5015058;28;20407;-69
2021/08/30 04:25:11;;;;;;;7.80;6.80;;;14.70;99.90;;;;;;5014809;28;20917;-71
2021/08/30 04:27:41;;;;;;;9.77;6.50;;;14.70;99.90;;;;;;5015020;28;20435;-70
2021/08/30 04:30:10;;;;;;;9.53;7.20;;;14.80;99.90;;;;;;5014715;28;20448;-69
2021/08/30 04:32:38;;;;;;;7.10;6.17;;;14.80;99.90;;;;;;5014666;28;20429;-70
2021/08/30 04:35:08;;;;;;;10.00;6.37;;;14.70;99.90;;;;;;5014790;28;20462;-70
2021/08/30 04:37:37;;;;;;;13.63;8.00;;;14.80;99.90;;;;;;5014695;28;20490;-70
2021/08/30 04:40:06;;;;;;;11.80;7.43;;;14.70;99.90;;;;;;4996958;28;20464;-71
2021/08/30 04:42:34;;;;;;;9.93;6.70;;;14.80;99.90;;;;;;5014521;28;20396;-70
2021/08/30 04:45:04;;;;;;;12.43;7.00;;;14.80;99.90;;;;;;5014218;28;20403;-71
2021/08/30 04:47:33;;;;;;;13.50;8.40;;;14.80;99.90;;;;;;5014524;28;20894;-69
2021/08/30 04:50:02;;;;;;;13.40;7.27;;;14.70;99.90;;;;;;5014376;28;20555;-70
2021/08/30 04:52:30;;;;;;;11.50;7.37;;;14.80;99.90;;;;;;5014528;28;20410;-69
2021/08/30 04:54:58;;;;;;;14.20;8.93;;;14.80;99.90;;;;;;5014430;28;20437;-71
2021/08/30 04:57:26;;;;;;;15.70;8.60;;;14.80;99.90;;;;;;5014330;28;20835;-70
2021/08/30 04:59:54;;;;;;;14.00;9.27;;;14.90;99.90;;;;;;5014289;28;20445;-70
2021/08/30 05:02:27;;;;;;;17.00;9.53;;;14.80;99.90;;;;;;5014118;28;20421;-69
2021/08/30 05:04:58;;;;;;;15.47;8.53;;;14.90;99.90;;;;;;5014013;28;20400;-69
2021/08/30 05:07:26;;;;;;;17.13;8.53;;;14.80;99.90;;;;;;5013079;28;20452;-71
2021/08/30 05:09:54;;;;;;;16.17;9.27;;;14.80;99.90;;;;;;5013824;28;20872;-70
2021/08/30 05:12:25;;;;;;;14.80;7.47;;;14.90;99.90;;;;;;5013960;28;20521;-70
2021/08/30 05:14:53;;;;;;;15.33;9.63;;;14.80;99.90;;;;;;5014204;28;20392;-70
2021/08/30 05:17:21;;;;;;;12.80;7.70;;;14.90;99.90;;;;;;5013859;28;20506;-71
2021/08/30 05:19:50;;;;;;;10.67;7.80;;;14.80;99.90;;;;;;5013649;28;20453;-70
2021/08/30 05:22:18;;;;;;;12.03;8.67;;;14.80;99.90;;;;;;5013768;28;20442;-71
2021/08/30 05:24:47;;;;;;;12.60;8.90;;;14.90;99.90;;;;;;5013435;28;20535;-71
2021/08/30 05:27:15;;;;;;;17.03;9.10;;;14.80;99.90;;;;;;5012978;28;20509;-71
2021/08/30 05:29:43;;;;;;;16.07;10.47;;;14.80;99.90;;;;;;5013459;28;20464;-70
2021/08/30 05:32:11;;;;;;;14.23;9.23;;;14.80;99.90;;;;;;5013479;28;20815;-70
2021/08/30 05:34:39;;;;;;;17.67;12.17;;;14.80;99.90;;;;;;5014162;28;20515;-71
2021/08/30 05:37:08;;;;;;;16.90;11.77;;;14.90;99.90;;;;;;5013434;28;20428;-70
2021/08/30 05:39:36;;;;;;;16.13;11.13;;;14.90;99.90;;;;;;5013928;28;20438;-71
2021/08/30 05:42:05;;;;;;;15.40;9.63;;;14.90;99.90;;;;;;5013626;28;20523;-70
2021/08/30 05:44:33;;;;;;;12.20;9.27;;;15.00;99.90;;;;;;5013780;28;20841;-70
2021/08/30 05:47:01;;;;;;;16.93;11.30;;;15.00;99.90;;;;;;5013114;28;20428;-70
2021/08/30 05:49:29;;;;;;;16.00;9.70;;;15.10;99.90;;;;;;5013260;28;20435;-70
2021/08/30 05:51:58;;;;;;;14.90;10.43;;;15.10;99.90;;;;;;5013301;28;20480;-69
2021/08/30 05:54:32;;;;;;;13.20;8.90;;;15.10;99.90;;;;;;5013074;28;20400;-69
2021/08/30 05:57:01;;;;;;;15.63;10.00;;;15.10;99.90;;;;;;5012764;28;20515;-69
2021/08/30 05:59:29;;;;;;;15.30;9.73;;;15.10;99.90;;;;;;5013039;28;20471;-69
2021/08/30 06:01:56;;;;;;;15.00;10.20;;;15.20;99.90;;;;;;5012839;28;20452;-70
2021/08/30 06:04:27;;;;;;;12.00;9.27;;;15.20;99.90;;;;;;5013568;28;20404;-70
2021/08/30 06:06:55;;;;;;;18.33;12.03;;;15.30;99.90;;;;;;5013227;28;20459;-69
2021/08/30 06:09:23;;;;;;;16.50;10.63;;;15.30;99.90;;;;;;5013313;28;20463;-69
2021/08/30 06:11:52;;;;;;;17.60;11.67;;;15.30;99.90;;;;;;5012958;28;20475;-70
2021/08/30 06:14:20;;;;;;;33.47;19.67;;;15.40;99.90;;;;;;5013026;28;20403;-69
2021/08/30 06:16:48;;;;;;;38.30;32.87;;;15.40;99.90;;;;;;5012603;28;20947;-72
2021/08/30 06:19:16;;;;;;;33.00;25.90;;;15.40;99.90;;;;;;5001954;28;20466;-72
2021/08/30 06:21:45;;;;;;;34.63;29.80;;;15.30;99.90;;;;;;5009202;28;20436;-70
2021/08/30 06:24:13;;;;;;;28.43;24.97;;;15.30;99.90;;;;;;4993896;28;20445;-70
2021/08/30 06:26:41;;;;;;;16.77;14.97;;;15.30;99.90;;;;;;4988800;28;20509;-69
2021/08/30 06:29:10;;;;;;;19.33;15.23;;;15.40;99.90;;;;;;4973065;28;20892;-69
2021/08/30 06:31:38;;;;;;;20.07;16.50;;;15.40;99.90;;;;;;4973516;28;20482;-71
2021/08/30 06:34:06;;;;;;;22.30;20.30;;;15.40;99.90;;;;;;4973514;28;20931;-71
2021/08/30 06:36:35;;;;;;;21.73;18.10;;;15.50;99.90;;;;;;4988378;28;20467;-71
2021/08/30 06:39:03;;;;;;;16.93;12.83;;;15.50;99.90;;;;;;4992851;28;20472;-70
2021/08/30 06:41:31;;;;;;;19.70;15.60;;;15.50;99.90;;;;;;4992880;28;20405;-71
2021/08/30 06:43:59;;;;;;;18.37;13.40;;;15.50;99.90;;;;;;4992992;28;20750;-71
2021/08/30 06:46:28;;;;;;;17.03;11.33;;;15.60;99.90;;;;;;4992863;28;20456;-71
2021/08/30 06:48:56;;;;;;;13.77;9.53;;;15.60;99.90;;;;;;4992811;28;20865;-71
2021/08/30 06:51:24;;;;;;;13.80;10.00;;;15.60;99.90;;;;;;4993257;28;20474;-72
2021/08/30 06:53:53;;;;;;;13.27;10.10;;;15.60;99.90;;;;;;4976423;28;20814;-71
2021/08/30 06:56:20;;;;;;;14.27;10.80;;;15.60;99.90;;;;;;4974188;28;20480;-71
2021/08/30 06:58:48;;;;;;;20.73;11.47;;;15.70;99.90;;;;;;4973855;28;20496;-71
2021/08/30 07:01:16;;;;;;;11.87;8.67;;;15.70;99.90;;;;;;4974404;28;20497;-71
2021/08/30 07:03:48;;;;;;;10.90;8.80;;;15.80;99.90;;;;;;4956830;28;20490;-70
2021/08/30 07:06:16;;;;;;;17.93;9.93;;;15.80;99.90;;;;;;4973823;28;20505;-71
2021/08/30 07:08:44;;;;;;;14.33;9.40;;;15.70;99.90;;;;;;4973986;28;20427;-71
2021/08/30 07:11:12;;;;;;;12.60;9.53;;;15.70;99.90;;;;;;4973260;28;20471;-71
2021/08/30 07:13:40;;;;;;;14.13;9.60;;;15.80;99.90;;;;;;4973140;28;20464;-71
2021/08/30 07:16:08;;;;;;;11.60;9.90;;;15.90;99.90;;;;;;4988152;28;20462;-71
2021/08/30 07:18:36;;;;;;;14.50;10.90;;;15.80;99.90;;;;;;5011828;28;20438;-71
2021/08/30 07:21:05;;;;;;;13.63;8.63;;;15.80;99.90;;;;;;5012141;28;20482;-70
2021/08/30 07:23:35;;;;;;;12.00;7.57;;;15.80;99.90;;;;;;5012072;28;20480;-70
2021/08/30 07:26:03;;;;;;;16.23;9.67;;;15.80;99.90;;;;;;5010949;28;20826;-71
2021/08/30 07:28:31;;;;;;;17.30;10.17;;;15.80;99.90;;;;;;5003106;28;20434;-71
2021/08/30 07:31:00;;;;;;;13.97;10.20;;;16.00;99.90;;;;;;5013704;28;20852;-71
2021/08/30 07:33:28;;;;;;;13.30;8.90;;;16.00;99.90;;;;;;5016249;28;20898;-71
2021/08/30 07:35:57;;;;;;;13.20;9.37;;;16.00;99.90;;;;;;5015939;28;20415;-70
2021/08/30 07:38:27;;;;;;;17.60;10.43;;;16.00;99.90;;;;;;5015822;28;20776;-71
2021/08/30 07:40:55;;;;;;;15.80;11.53;;;16.10;99.90;;;;;;5015956;28;20455;-71
2021/08/30 07:43:23;;;;;;;17.20;9.63;;;16.10;99.90;;;;;;5015909;28;20460;-71
2021/08/30 07:45:51;;;;;;;17.90;9.90;;;16.00;99.90;;;;;;5015293;28;20424;-71
2021/08/30 07:48:19;;;;;;;16.67;10.73;;;16.00;99.90;;;;;;5015021;28;20924;-71
2021/08/30 07:50:47;;;;;;;19.03;10.30;;;16.00;99.90;;;;;;5015255;28;20538;-71
2021/08/30 07:53:15;;;;;;;18.30;10.73;;;16.00;99.90;;;;;;5015636;28;20491;-72
2021/08/30 07:55:44;;;;;;;13.90;9.30;;;16.10;99.90;;;;;;5015570;28;20473;-72
2021/08/30 07:58:15;;;;;;;12.93;8.97;;;16.30;99.90;;;;;;5015956;28;20839;-72
2021/08/30 08:00:43;;;;;;;15.10;10.50;;;16.30;99.90;;;;;;5015433;28;20427;-72
2021/08/30 08:03:11;;;;;;;18.27;9.27;;;16.40;99.90;;;;;;5015584;28;20475;-70
2021/08/30 08:05:39;;;;;;;11.47;8.40;;;16.50;99.90;;;;;;5014961;28;20497;-70
2021/08/30 08:08:07;;;;;;;16.23;10.17;;;16.70;99.90;;;;;;5015023;28;20431;-70
2021/08/30 08:10:35;;;;;;;27.93;16.17;;;17.00;99.90;;;;;;5015001;28;20464;-70
2021/08/30 08:13:05;;;;;;;13.13;10.33;;;17.00;99.90;;;;;;5015151;28;20764;-72
2021/08/30 08:15:33;;;;;;;18.93;10.70;;;17.10;99.90;;;;;;4998229;28;20590;-69
2021/08/30 08:18:01;;;;;;;18.33;9.97;;;17.00;99.90;;;;;;5015467;28;20456;-71
2021/08/30 08:20:31;;;;;;;13.53;9.70;;;16.80;99.90;;;;;;5002897;28;20404;-71
2021/08/30 08:23:00;;;;;;;13.73;8.63;;;16.70;99.90;;;;;;4995384;28;20508;-71
2021/08/30 08:25:28;;;;;;;10.03;7.47;;;16.70;99.90;;;;;;4995186;28;20532;-71
2021/08/30 08:28:00;;;;;;;9.80;8.80;;;16.80;99.90;;;;;;4995481;28;20408;-71
2021/08/30 08:30:30;;;;;;;10.37;8.87;;;16.60;99.90;;;;;;4995756;28;20470;-71
2021/08/30 08:32:58;;;;;;;11.17;8.13;;;16.50;99.90;;;;;;4995479;28;20408;-70
2021/08/30 08:35:27;;;;;;;8.63;6.43;;;16.30;99.90;;;;;;4995662;28;20504;-71
2021/08/30 08:37:55;;;;;;;11.77;8.20;;;16.30;99.90;;;;;;4995037;28;20428;-71
2021/08/30 08:40:23;;;;;;;7.60;6.30;;;16.30;99.90;;;;;;4995464;28;20401;-71
2021/08/30 08:42:51;;;;;;;9.73;7.57;;;16.30;99.90;;;;;;4994191;28;20776;-70
2021/08/30 08:45:20;;;;;;;7.57;6.80;;;16.50;99.90;;;;;;4994992;28;20495;-72
2021/08/30 08:47:49;;;;;;;6.83;6.17;;;16.70;99.90;;;;;;4995013;28;20815;-70
2021/08/30 08:50:21;;;;;;;7.97;7.17;;;16.80;99.90;;;;;;4994654;28;20465;-72
2021/08/30 08:52:49;;;;;;;11.23;8.37;;;16.90;99.90;;;;;;4994791;28;20451;-71
2021/08/30 08:55:18;;;;;;;6.60;6.00;;;17.00;99.90;;;;;;4977301;28;20469;-71
2021/08/30 08:57:46;;;;;;;6.60;5.87;;;17.20;99.90;;;;;;4994781;28;20529;-70
2021/08/30 09:00:15;;;;;;;6.60;5.30;;;17.30;99.90;;;;;;4994810;28;20508;-71
2021/08/30 09:02:46;;;;;;;5.40;4.90;;;17.50;99.90;;;;;;4977329;28;20464;-70
2021/08/30 09:05:24;;;;;;;5.77;5.17;;;17.60;99.90;;;;;;5002635;28;20766;-70
2021/08/30 09:07:54;;;;;;;8.70;6.03;;;17.50;99.90;;;;;;5055072;22;20473;-70
2021/08/30 09:10:26;;;;;;;6.00;5.07;;;17.50;99.90;;;;;;5033783;28;20493;-71
2021/08/30 09:13:05;;;;;;;7.67;5.73;;;17.60;99.90;;;;;;5033932;28;20426;-70
2021/08/30 09:15:41;;;;;;;6.43;5.83;;;17.60;99.90;;;;;;5033704;28;20420;-71
2021/08/30 09:18:11;;;;;;;5.77;5.17;;;17.40;99.90;;;;;;5014019;28;20870;-72
2021/08/30 09:20:41;;;;;;;6.43;5.83;;;17.20;99.90;;;;;;5013755;28;20436;-72
2021/08/30 09:23:11;;;;;;;6.40;5.83;;;17.10;99.90;;;;;;5013887;28;20463;-70
2021/08/30 09:25:40;;;;;;;5.90;5.30;;;17.10;99.90;;;;;;5013663;28;20431;-70
2021/08/30 09:28:08;;;;;;;5.47;4.47;;;17.30;99.90;;;;;;5013647;28;20404;-71
2021/08/30 09:30:37;;;;;;;6.60;5.97;;;17.20;99.90;;;;;;4995624;28;20434;-71
2021/08/30 09:33:05;;;;;;;5.27;4.77;;;17.20;99.90;;;;;;4995962;28;20411;-71
2021/08/30 09:35:35;;;;;;;6.20;5.10;;;17.30;99.90;;;;;;5013957;28;20471;-71
2021/08/30 09:38:04;;;;;;;5.43;4.90;;;17.20;99.90;;;;;;5013737;28;20515;-71
2021/08/30 09:40:37;;;;;;;4.30;3.90;;;17.30;99.90;;;;;;5014150;28;20425;-71
2021/08/30 09:43:06;;;;;;;5.20;4.70;;;17.20;99.90;;;;;;5013898;28;20426;-71
2021/08/30 09:45:34;;;;;;;7.10;4.53;;;17.20;99.90;;;;;;5014065;28;20404;-71
2021/08/30 09:48:04;;;;;;;7.37;5.17;;;17.10;99.90;;;;;;5013775;28;20445;-71
2021/08/30 09:50:38;;;;;;;7.50;5.63;;;17.00;99.90;;;;;;5013940;28;20425;-72
2021/08/30 09:53:07;;;;;;;10.40;5.40;;;16.90;99.90;;;;;;5013237;28;20440;-72
2021/08/30 09:55:37;;;;;;;6.47;5.33;;;17.00;99.90;;;;;;5013138;28;20396;-71
2021/08/30 09:58:06;;;;;;;6.63;5.17;;;17.00;99.90;;;;;;5013484;28;20763;-70
2021/08/30 10:00:35;;;;;;;8.77;6.23;;;17.00;99.90;;;;;;5013161;28;20404;-71
2021/08/30 10:03:04;;;;;;;9.03;5.23;;;16.90;99.90;;;;;;5013249;28;20400;-71
2021/08/30 10:05:33;;;;;;;6.37;5.40;;;17.00;99.90;;;;;;5012657;28;20408;-73
2021/08/30 10:08:01;;;;;;;5.77;5.10;;;17.10;99.90;;;;;;5012749;28;21061;-71
2021/08/30 10:10:31;;;;;;;5.97;4.83;;;17.10;99.90;;;;;;5012857;28;20425;-72
2021/08/30 10:13:01;;;;;;;5.77;4.80;;;17.00;99.90;;;;;;5013102;28;20449;-70
2021/08/30 10:15:30;;;;;;;7.40;5.60;;;17.00;99.90;;;;;;5012563;28;20417;-70
2021/08/30 10:17:58;;;;;;;6.83;5.10;;;17.00;99.90;;;;;;5012812;28;20415;-72
2021/08/30 10:20:33;;;;;;;6.50;5.30;;;17.20;99.90;;;;;;5012596;28;20408;-70
2021/08/30 10:23:05;;;;;;;5.67;4.90;;;17.50;99.90;;;;;;4995254;28;20425;-71
2021/08/30 10:25:36;;;;;;;5.60;5.10;;;17.50;99.90;;;;;;5012682;28;20466;-71
2021/08/30 10:28:06;;;;;;;5.97;5.37;;;17.40;99.90;;;;;;5013024;28;20453;-72
2021/08/30 10:30:37;;;;;;;7.80;5.40;;;17.20;99.90;;;;;;5011768;28;20424;-70
2021/08/30 10:33:07;;;;;;;6.83;4.80;;;17.20;99.90;;;;;;5008038;28;20475;-72
2021/08/30 10:35:37;;;;;;;5.10;4.60;;;17.30;99.90;;;;;;5012686;28;20438;-71
2021/08/30 10:38:06;;;;;;;5.40;4.80;;;17.40;99.90;;;;;;5013098;28;20458;-71
2021/08/30 10:40:38;;;;;;;7.43;5.40;;;17.30;99.90;;;;;;4995016;28;20415;-71
2021/08/30 10:43:09;;;;;;;5.43;4.20;;;17.20;99.90;;;;;;5012428;28;20484;-71
2021/08/30 10:45:41;;;;;;;6.53;4.43;;;17.10;99.90;;;;;;5012172;28;20408;-71
2021/08/30 10:48:12;;;;;;;6.53;4.83;;;17.00;99.90;;;;;;5012335;28;20384;-72
2021/08/30 10:50:43;;;;;;;4.40;4.00;;;17.00;99.90;;;;;;4994434;28;20420;-71
2021/08/30 10:53:17;;;;;;;4.83;4.20;;;16.90;99.90;;;;;;5012272;28;20476;-72
2021/08/30 10:55:49;;;;;;;5.57;4.83;;;16.80;99.90;;;;;;5011760;28;20440;-70
2021/08/30 10:58:20;;;;;;;5.57;4.97;;;16.90;99.90;;;;;;5011301;28;20814;-71
2021/08/30 11:00:50;;;;;;;6.87;5.63;;;16.90;99.90;;;;;;5010882;28;20433;-71
2021/08/30 11:03:28;;;;;;;6.73;6.03;;;16.80;99.90;;;;;;5012271;28;20429;-71
2021/08/30 11:06:04;;;;;;;7.50;6.27;;;16.90;99.90;;;;;;5010736;28;20403;-72
2021/08/30 11:08:33;;;;;;;7.40;4.93;;;17.00;99.90;;;;;;5012232;28;20454;-71
2021/08/30 11:11:17;;;;;;;6.23;5.63;;;17.10;99.90;;;;;;5010760;28;20932;-70
2021/08/30 11:13:58;;;;;;;6.00;5.00;;;17.10;99.90;;;;;;5012209;28;20442;-71
2021/08/30 11:16:27;;;;;;;7.03;5.57;;;17.20;99.90;;;;;;5011554;28;20519;-72
2021/08/30 11:18:57;;;;;;;7.03;5.40;;;17.40;99.90;;;;;;5011799;28;20453;-72
2021/08/30 11:21:47;;;;;;;6.83;6.13;;;17.50;99.90;;;;;;5011647;28;20823;-71
2021/08/30 11:24:30;;;;;;;9.97;7.33;;;17.60;99.90;;;;;;4989462;28;20941;-72
2021/08/30 11:27:03;;;;;;;5.30;4.67;;;17.70;99.90;;;;;;5011308;28;20431;-71
2021/08/30 11:29:32;;;;;;;6.37;5.57;;;17.90;99.90;;;;;;5011870;28;20426;-71
2021/08/30 11:32:01;;;;;;;5.23;4.73;;;18.10;99.90;;;;;;5011981;28;20482;-71
2021/08/30 11:34:31;;;;;;;6.83;5.50;;;18.40;99.90;;;;;;5011823;28;20516;-70
2021/08/30 11:37:01;;;;;;;6.77;4.73;;;18.70;99.90;;;;;;5011433;28;20920;-71
2021/08/30 11:39:32;;;;;;;5.03;4.23;;;18.70;99.90;;;;;;5012406;28;20405;-71
2021/08/30 11:42:04;;;;;;;5.20;4.70;;;18.80;99.90;;;;;;5012599;28;21025;-73
2021/08/30 11:44:34;;;;;;;6.23;4.90;;;18.90;99.90;;;;;;5011971;28;20400;-72
2021/08/30 11:47:04;;;;;;;5.13;4.60;;;18.90;99.90;;;;;;5011331;28;20852;-72
2021/08/30 11:49:37;;;;;;;4.90;4.20;;;18.90;99.90;;;;;;5011825;28;20428;-72
2021/08/30 11:52:06;;;;;;;3.80;3.40;;;18.90;99.90;;;;;;5011467;28;20964;-71
2021/08/30 11:54:36;;;;;;;4.43;3.73;;;18.80;99.90;;;;;;5011746;28;20429;-71
2021/08/30 11:57:10;;;;;;;4.20;3.47;;;18.60;99.90;;;;;;5011580;28;20482;-72
2021/08/30 11:59:39;;;;;;;5.10;4.17;;;18.50;99.90;;;;;;5011864;28;20426;-72
2021/08/30 12:02:10;;;;;;;3.80;3.50;;;18.60;99.90;;;;;;5011777;28;20433;-71
2021/08/30 12:04:39;;;;;;;3.20;2.90;;;18.70;99.90;;;;;;5011702;28;20757;-72
2021/08/30 12:07:11;;;;;;;4.40;3.80;;;18.60;99.90;;;;;;5011199;28;20738;-72
2021/08/30 12:09:41;;;;;;;3.63;3.27;;;18.70;99.90;;;;;;5011934;28;20392;-72
2021/08/30 12:12:19;;;;;;;4.07;3.40;;;18.40;99.90;;;;;;5015250;28;20464;-71
2021/08/30 12:14:57;;;;;;;4.10;3.27;;;18.20;99.90;;;;;;5016259;28;20405;-72
2021/08/30 12:17:26;;;;;;;3.90;3.10;;;18.00;99.90;;;;;;5018071;28;20422;-70
2021/08/30 12:19:55;;;;;;;5.93;3.60;;;17.90;99.90;;;;;;5019884;28;20523;-70
2021/08/30 12:22:29;;;;;;;3.57;3.27;;;17.90;99.90;;;;;;4997182;28;20436;-71
2021/08/30 12:25:03;;;;;;;5.30;2.87;;;18.00;99.90;;;;;;5015282;28;20412;-70
2021/08/30 12:27:34;;;;;;;3.83;2.93;;;17.90;99.90;;;;;;5015021;28;20446;-71
2021/08/30 12:30:11;;;;;;;4.57;3.50;;;17.80;99.90;;;;;;5015251;28;20946;-71
2021/08/30 12:33:02;;;;;;;3.60;3.30;;;17.90;99.90;;;;;;5015730;28;20449;-72
2021/08/30 12:35:33;;;;;;;4.63;4.20;;;17.90;99.90;;;;;;5015596;28;20400;-72
2021/08/30 12:38:03;;;;;;;3.73;3.20;;;18.10;99.90;;;;;;5014135;28;20456;-71
2021/08/30 12:40:33;;;;;;;3.97;3.30;;;18.10;99.90;;;;;;5015501;28;20410;-71
2021/08/30 12:43:04;;;;;;;5.37;4.37;;;18.30;99.90;;;;;;5016067;28;20454;-72
2021/08/30 12:45:32;;;;;;;4.03;3.73;;;18.40;99.90;;;;;;5015499;28;20428;-71
2021/08/30 12:48:00;;;;;;;5.07;3.43;;;18.50;99.90;;;;;;5015755;28;20471;-71
2021/08/30 12:50:28;;;;;;;4.00;3.30;;;18.60;99.90;;;;;;5014691;28;20898;-72
2021/08/30 12:52:57;;;;;;;3.87;3.07;;;18.80;99.90;;;;;;5014470;28;20950;-70
2021/08/30 12:55:25;;;;;;;3.50;3.20;;;18.70;99.90;;;;;;5014465;28;20404;-70
2021/08/30 12:57:53;;;;;;;4.07;3.37;;;18.80;99.90;;;;;;5014406;28;20474;-71
2021/08/30 13:00:23;;;;;;;5.00;4.17;;;19.10;99.90;;;;;;4996899;28;20419;-71